createdAt,value
2022-08-25T00:00:11.511Z,75.65
2022-08-25T00:02:38.170Z,75.60
2022-08-25T00:05:05.488Z,75.65
2022-08-25T00:07:33.379Z,75.51
2022-08-25T00:10:00.380Z,75.19
2022-08-25T00:12:27.019Z,75.47
2022-08-25T00:14:53.650Z,75.58
2022-08-25T00:17:20.244Z,75.57
2022-08-25T00:19:46.865Z,75.28
2022-08-25T00:22:13.502Z,75.30
2022-08-25T00:24:40.166Z,74.77
2022-08-25T00:27:06.891Z,74.86
2022-08-25T00:29:34.286Z,75.16
2022-08-25T00:32:01.125Z,74.80
2022-08-25T00:34:36.997Z,74.91
2022-08-25T00:37:07.198Z,75.17
2022-08-25T00:39:33.902Z,75.15
2022-08-25T00:42:00.503Z,74.89
2022-08-25T00:44:29.678Z,75.17
2022-08-25T00:46:58.632Z,74.69
2022-08-25T00:49:36.512Z,74.66
2022-08-25T00:52:05.368Z,74.86
2022-08-25T00:54:39.392Z,74.88
2022-08-25T00:57:07.430Z,74.35
2022-08-25T00:59:34.791Z,74.48
2022-08-25T01:02:02.567Z,74.51
2022-08-25T01:04:29.434Z,74.26
2022-08-25T01:06:57.144Z,74.65
2022-08-25T01:09:23.801Z,74.51
2022-08-25T01:11:50.439Z,74.15
2022-08-25T01:14:19.591Z,74.39
2022-08-25T01:16:46.372Z,74.41
2022-08-25T01:19:17.653Z,74.46
2022-08-25T01:21:50.372Z,74.51
2022-08-25T01:24:29.736Z,74.54
2022-08-25T01:26:56.338Z,74.43
2022-08-25T01:29:25.280Z,74.37
2022-08-25T01:31:58.016Z,74.14
2022-08-25T01:34:27.203Z,74.10
2022-08-25T01:36:54.838Z,74.21
2022-08-25T01:39:22.449Z,73.97
2022-08-25T01:41:51.401Z,74.05
2022-08-25T01:44:19.281Z,74.30
2022-08-25T01:46:46.009Z,74.00
2022-08-25T01:49:12.652Z,73.71
2022-08-25T01:51:52.913Z,73.68
2022-08-25T01:54:19.881Z,73.59
2022-08-25T01:56:46.522Z,73.39
2022-08-25T01:59:24.082Z,73.74
2022-08-25T02:01:57.440Z,73.32
2022-08-25T02:04:32.100Z,73.32
2022-08-25T02:07:00.079Z,73.35
2022-08-25T02:09:26.825Z,73.34
2022-08-25T02:11:53.466Z,73.04
2022-08-25T02:14:20.116Z,72.99
2022-08-25T02:16:49.094Z,72.92
2022-08-25T02:19:16.255Z,73.11
2022-08-25T02:21:43.310Z,73.02
2022-08-25T02:24:11.999Z,73.17
2022-08-25T02:26:38.929Z,73.12
2022-08-25T02:29:07.510Z,72.64
2022-08-25T02:31:35.081Z,73.27
2022-08-25T02:34:02.388Z,73.07
2022-08-25T02:36:29.975Z,73.14
2022-08-25T02:38:56.690Z,73.02
2022-08-25T02:41:31.000Z,73.06
2022-08-25T02:43:59.493Z,73.21
2022-08-25T02:46:26.392Z,73.15
2022-08-25T02:48:53.436Z,73.37
2022-08-25T02:51:22.133Z,72.88
2022-08-25T02:53:49.251Z,73.14
2022-08-25T02:56:18.233Z,73.43
2022-08-25T02:58:46.025Z,72.69
2022-08-25T03:01:14.242Z,72.79
2022-08-25T03:03:42.253Z,72.82
2022-08-25T03:06:12.597Z,73.24
2022-08-25T03:08:39.643Z,72.44
2022-08-25T03:11:06.608Z,72.97
2022-08-25T03:13:33.276Z,72.57
2022-08-25T03:16:00.971Z,72.91
2022-08-25T03:18:30.254Z,72.60
2022-08-25T03:20:57.694Z,73.15
2022-08-25T03:23:24.558Z,73.07
2022-08-25T03:26:09.537Z,72.62
2022-08-25T03:28:36.488Z,72.42
2022-08-25T03:31:03.508Z,72.57
2022-08-25T03:33:30.792Z,72.44
2022-08-25T03:35:58.086Z,72.64
2022-08-25T03:38:26.205Z,72.45
2022-08-25T03:40:53.221Z,72.68
2022-08-25T03:43:20.378Z,72.16
2022-08-25T03:45:47.895Z,72.43
2022-08-25T03:48:15.490Z,72.57
2022-08-25T03:50:51.422Z,72.27
2022-08-25T03:53:20.270Z,72.19
2022-08-25T03:55:47.499Z,71.96
2022-08-25T03:58:14.305Z,72.38
2022-08-25T04:00:41.059Z,72.48
2022-08-25T04:03:07.954Z,72.28
2022-08-25T04:05:35.325Z,72.18
2022-08-25T04:08:02.185Z,71.95
2022-08-25T04:10:29.708Z,71.65
2022-08-25T04:12:57.130Z,71.56
2022-08-25T04:15:28.508Z,72.09
2022-08-25T04:17:59.023Z,71.95
2022-08-25T04:20:25.953Z,71.65
2022-08-25T04:22:52.596Z,71.08
2022-08-25T04:25:19.246Z,71.00
2022-08-25T04:27:45.844Z,71.55
2022-08-25T04:30:13.174Z,71.38
2022-08-25T04:32:39.776Z,71.14
2022-08-25T04:35:07.578Z,71.12
2022-08-25T04:37:34.774Z,71.46
2022-08-25T04:40:01.645Z,71.21
2022-08-25T04:42:28.539Z,71.17
2022-08-25T04:44:55.248Z,71.37
2022-08-25T04:47:22.300Z,71.53
2022-08-25T04:49:49.007Z,71.50
2022-08-25T04:52:15.859Z,71.71
2022-08-25T04:54:43.077Z,71.66
2022-08-25T04:57:09.971Z,71.46
2022-08-25T04:59:36.808Z,71.43
2022-08-25T05:02:05.240Z,71.96
2022-08-25T05:04:33.177Z,72.83
2022-08-25T05:07:00.341Z,73.49
2022-08-25T05:09:27.123Z,74.11
2022-08-25T05:11:54.950Z,74.10
2022-08-25T05:14:25.603Z,75.08
2022-08-25T05:16:56.296Z,75.12
2022-08-25T05:19:24.240Z,75.43
2022-08-25T05:21:51.808Z,75.82
2022-08-25T05:24:18.666Z,75.84
2022-08-25T05:26:45.290Z,76.14
2022-08-25T05:29:11.998Z,76.38
2022-08-25T05:31:43.172Z,76.28
2022-08-25T05:34:12.249Z,76.90
2022-08-25T05:36:43.277Z,77.11
2022-08-25T05:39:10.829Z,76.97
2022-08-25T05:41:39.865Z,77.11
2022-08-25T05:44:06.505Z,77.41
2022-08-25T05:46:33.145Z,77.99
2022-08-25T05:49:00.093Z,78.16
2022-08-25T05:51:26.955Z,77.94
2022-08-25T05:53:53.962Z,78.39
2022-08-25T05:56:20.629Z,78.57
2022-08-25T05:58:47.829Z,78.31
2022-08-25T06:01:43.511Z,78.38
2022-08-25T06:04:12.796Z,78.11
2022-08-25T06:06:40.000Z,78.51
2022-08-25T06:09:08.735Z,78.50
2022-08-25T06:11:37.028Z,79.19
2022-08-25T06:14:04.759Z,78.98
2022-08-25T06:16:31.603Z,78.70
2022-08-25T06:18:58.320Z,79.31
2022-08-25T06:21:25.460Z,78.87
2022-08-25T06:23:52.838Z,79.05
2022-08-25T06:26:20.897Z,78.97
2022-08-25T06:28:52.017Z,79.13
2022-08-25T06:31:19.863Z,79.81
2022-08-25T06:33:46.755Z,79.53
2022-08-25T06:36:13.521Z,80.01
2022-08-25T06:38:40.256Z,79.58
2022-08-25T06:41:07.988Z,80.25
2022-08-25T06:43:34.915Z,80.17
2022-08-25T06:46:09.627Z,80.25
2022-08-25T06:48:37.370Z,80.04
2022-08-25T06:51:13.996Z,79.71
2022-08-25T06:53:42.353Z,80.25
2022-08-25T06:56:09.622Z,80.57
2022-08-25T06:58:36.308Z,80.48
2022-08-25T07:01:22.288Z,80.48
2022-08-25T07:03:50.314Z,80.29
2022-08-25T07:06:19.802Z,80.34
2022-08-25T07:08:48.017Z,80.46
2022-08-25T07:11:16.685Z,80.77
2022-08-25T07:13:44.790Z,80.45
2022-08-25T07:16:11.592Z,80.56
2022-08-25T07:18:38.507Z,80.90
2022-08-25T07:21:05.411Z,81.10
2022-08-25T07:23:36.075Z,80.97
2022-08-25T07:26:38.814Z,81.49
2022-08-25T07:29:14.940Z,81.18
2022-08-25T07:31:41.818Z,81.16
2022-08-25T07:34:27.622Z,80.97
2022-08-25T07:36:55.689Z,80.69
2022-08-25T07:39:22.757Z,81.17
2022-08-25T07:44:36.093Z,81.27
2022-08-25T07:47:04.894Z,81.04
2022-08-25T07:49:36.012Z,81.24
2022-08-25T07:52:06.994Z,81.05
2022-08-25T07:54:38.069Z,81.41
2022-08-25T07:57:08.860Z,81.46
2022-08-25T07:59:40.242Z,81.45
2022-08-25T08:02:18.081Z,81.43
2022-08-25T08:04:51.949Z,81.32
2022-08-25T08:07:25.793Z,81.20
2022-08-25T08:10:42.177Z,81.44
2022-08-25T08:12:58.466Z,80.88
2022-08-25T08:15:25.221Z,81.10
2022-08-25T08:17:56.356Z,81.13
2022-08-25T08:20:25.189Z,81.49
2022-08-25T08:22:52.195Z,81.06
2022-08-25T08:25:21.579Z,81.08
2022-08-25T08:27:54.997Z,81.21
2022-08-25T08:30:22.293Z,81.48
2022-08-25T08:33:09.245Z,81.45
2022-08-25T08:35:37.136Z,81.68
2022-08-25T08:38:05.451Z,81.28
2022-08-25T08:41:23.186Z,81.88
2022-08-25T08:43:56.696Z,82.13
2022-08-25T08:46:25.977Z,82.23
2022-08-25T08:49:01.488Z,81.74
2022-08-25T08:51:32.670Z,81.46
2022-08-25T08:54:15.149Z,81.88
2022-08-25T08:56:47.977Z,81.84
2022-08-25T08:59:28.863Z,81.79
2022-08-25T09:02:00.407Z,81.76
2022-08-25T09:04:58.794Z,82.46
2022-08-25T09:07:47.280Z,82.11
2022-08-25T09:10:18.184Z,82.20
2022-08-25T09:12:55.466Z,82.32
2022-08-25T09:15:59.324Z,82.00
2022-08-25T09:18:51.017Z,82.15
2022-08-25T09:21:31.342Z,82.07
2022-08-25T09:24:22.793Z,82.04
2022-08-25T09:27:19.261Z,82.24
2022-08-25T09:30:10.063Z,82.31
2022-08-25T09:32:48.994Z,82.22
2022-08-25T09:35:32.098Z,82.50
2022-08-25T09:38:07.905Z,81.94
2022-08-25T09:40:40.258Z,81.88
2022-08-25T09:43:28.937Z,82.14
2022-08-25T09:46:20.494Z,82.07
2022-08-25T09:48:56.441Z,81.88
2022-08-25T09:51:42.341Z,82.29
2022-08-25T09:54:12.708Z,82.02
2022-08-25T09:57:01.931Z,82.03
2022-08-25T09:59:34.834Z,82.33
2022-08-25T10:02:21.016Z,81.97
2022-08-25T10:04:47.769Z,81.80
2022-08-25T10:07:35.716Z,81.61
2022-08-25T10:10:07.641Z,81.76
2022-08-25T10:12:42.612Z,81.66
2022-08-25T10:15:34.232Z,81.28
2022-08-25T10:18:21.251Z,81.04
2022-08-25T10:21:07.837Z,81.03
2022-08-25T10:23:36.981Z,81.07
2022-08-25T10:26:10.691Z,81.07
2022-08-25T10:28:50.738Z,80.45
2022-08-25T10:31:34.947Z,80.14
2022-08-25T10:34:15.639Z,79.95
2022-08-25T10:37:32.689Z,79.70
2022-08-25T10:40:32.500Z,80.33
2022-08-25T10:43:07.580Z,80.30
2022-08-25T10:46:15.009Z,80.02
2022-08-25T10:48:52.630Z,80.08
2022-08-25T10:51:43.808Z,79.66
2022-08-25T10:54:19.362Z,80.15
2022-08-25T10:57:39.630Z,79.11
2022-08-25T11:00:13.414Z,79.25
2022-08-25T11:03:21.315Z,79.30
2022-08-25T11:06:00.108Z,79.11
2022-08-25T11:08:36.877Z,78.65
2022-08-25T11:11:06.134Z,78.97
2022-08-25T11:13:47.907Z,78.62
2022-08-25T11:16:19.914Z,78.76
2022-08-25T11:18:52.116Z,78.03
2022-08-25T11:21:24.159Z,78.62
2022-08-25T11:23:59.930Z,78.45
2022-08-25T11:26:36.629Z,78.35
2022-08-25T11:29:12.905Z,78.77
2022-08-25T11:31:53.588Z,78.48
2022-08-25T11:34:21.613Z,77.98
2022-08-25T11:36:57.631Z,77.79
2022-08-25T11:40:05.014Z,77.78
2022-08-25T11:42:43.264Z,77.36
2022-08-25T11:45:16.239Z,77.63
2022-08-25T11:48:27.671Z,77.64
2022-08-25T11:50:58.320Z,78.06
2022-08-25T11:53:28.962Z,77.97
2022-08-25T11:56:05.567Z,77.76
2022-08-25T11:58:32.229Z,77.84
2022-08-25T12:01:03.984Z,77.79
2022-08-25T12:03:36.636Z,77.65
2022-08-25T12:06:23.383Z,78.28
2022-08-25T12:09:00.648Z,77.84
2022-08-25T12:11:42.275Z,78.22
2022-08-25T12:14:28.371Z,78.27
2022-08-25T12:16:55.227Z,78.27
2022-08-25T12:19:28.726Z,77.51
2022-08-25T12:22:03.493Z,78.07
2022-08-25T12:24:47.850Z,77.97
2022-08-25T12:27:39.422Z,77.26
2022-08-25T12:30:16.067Z,77.67
2022-08-25T12:33:11.989Z,76.52
2022-08-25T12:35:59.190Z,76.96
2022-08-25T12:38:50.839Z,75.96
2022-08-25T12:41:24.593Z,77.01
2022-08-25T12:43:53.237Z,75.85
2022-08-25T12:46:19.861Z,76.44
2022-08-25T12:48:57.267Z,76.47
2022-08-25T12:51:48.525Z,76.40
2022-08-25T12:54:19.092Z,76.27
2022-08-25T12:56:57.800Z,75.75
2022-08-25T12:59:38.305Z,76.11
2022-08-25T13:02:16.873Z,76.16
2022-08-25T13:04:46.758Z,76.01
2022-08-25T13:07:36.263Z,76.50
2022-08-25T13:10:09.052Z,75.65
2022-08-25T13:13:05.189Z,76.09
2022-08-25T13:15:37.329Z,75.40
2022-08-25T13:18:29.725Z,75.93
2022-08-25T13:21:19.287Z,75.35
2022-08-25T13:23:49.921Z,75.16
2022-08-25T13:26:48.006Z,75.15
2022-08-25T13:29:20.189Z,75.05
2022-08-25T13:31:51.621Z,74.56
2022-08-25T13:34:23.093Z,75.10
2022-08-25T13:37:29.773Z,74.88
2022-08-25T13:40:29.513Z,74.58
2022-08-25T13:43:10.601Z,74.64
2022-08-25T13:45:46.181Z,74.77
2022-08-25T13:48:21.034Z,73.91
2022-08-25T13:50:52.128Z,74.19
2022-08-25T13:53:25.359Z,74.87
2022-08-25T13:55:56.975Z,75.53
2022-08-25T13:58:45.192Z,75.23
2022-08-25T14:01:23.624Z,75.59
2022-08-25T14:04:51.503Z,74.83
2022-08-25T14:07:19.424Z,74.42
2022-08-25T14:09:52.125Z,74.26
2022-08-25T14:12:44.790Z,73.93
2022-08-25T14:15:17.782Z,74.17
2022-08-25T14:20:23.779Z,75.24
2022-08-25T14:22:55.853Z,74.42
2022-08-25T14:25:26.730Z,75.06
2022-08-25T14:28:06.709Z,75.19
2022-08-25T14:30:36.209Z,75.56
2022-08-25T14:33:04.008Z,75.45
2022-08-25T14:35:31.389Z,74.58
2022-08-25T14:37:58.274Z,74.82
2022-08-25T14:40:24.915Z,74.35
2022-08-25T14:45:18.823Z,74.06
2022-08-25T14:47:49.827Z,74.50
2022-08-25T14:50:20.132Z,73.67
2022-08-25T14:52:48.295Z,73.71
2022-08-25T14:55:31.590Z,74.63
2022-08-25T14:57:59.572Z,74.14
2022-08-25T15:00:26.884Z,74.03
2022-08-25T15:02:54.883Z,74.07
2022-08-25T15:05:24.732Z,73.67
2022-08-25T15:08:12.218Z,74.33
2022-08-25T15:10:39.930Z,73.95
2022-08-25T15:13:07.177Z,73.85
2022-08-25T15:15:38.334Z,73.95
2022-08-25T15:18:05.657Z,73.78
2022-08-25T15:20:32.942Z,74.08
2022-08-25T15:22:59.834Z,74.28
2022-08-25T15:25:26.877Z,73.89
2022-08-25T15:27:54.342Z,74.30
2022-08-25T15:30:21.545Z,74.32
2022-08-25T15:32:57.759Z,74.72
2022-08-25T15:35:29.046Z,74.86
2022-08-25T15:37:55.934Z,74.49
2022-08-25T15:40:23.151Z,74.61
2022-08-25T15:42:49.814Z,74.86
2022-08-25T15:45:16.660Z,75.14
2022-08-25T15:47:44.839Z,75.04
2022-08-25T15:50:17.703Z,75.20
2022-08-25T15:52:46.152Z,75.04
2022-08-25T15:55:13.766Z,75.32
2022-08-25T15:57:40.391Z,75.45
2022-08-25T16:00:13.664Z,75.34
2022-08-25T16:02:43.554Z,75.54
2022-08-25T16:05:12.377Z,75.38
2022-08-25T16:07:40.493Z,75.37
2022-08-25T16:10:07.726Z,75.41
2022-08-25T16:12:34.530Z,75.70
2022-08-25T16:15:01.783Z,75.38
2022-08-25T16:17:28.397Z,75.13
2022-08-25T16:19:55.016Z,75.18
2022-08-25T16:22:21.630Z,74.70
2022-08-25T16:24:49.145Z,75.26
2022-08-25T16:27:16.251Z,74.86
2022-08-25T16:29:44.124Z,74.88
2022-08-25T16:32:13.421Z,74.89
2022-08-25T16:34:41.456Z,74.28
2022-08-25T16:37:08.665Z,74.48
2022-08-25T16:39:35.950Z,74.22
2022-08-25T16:42:06.580Z,74.32
2022-08-25T16:44:34.371Z,74.13
2022-08-25T16:47:01.514Z,73.96
2022-08-25T16:49:28.269Z,73.52
2022-08-25T16:51:57.693Z,73.38
2022-08-25T16:55:00.845Z,73.44
2022-08-25T16:57:27.458Z,73.02
2022-08-25T16:59:54.055Z,73.22
2022-08-25T17:02:21.666Z,73.03
2022-08-25T17:04:48.438Z,73.17
2022-08-25T17:07:15.708Z,72.75
2022-08-25T17:09:50.451Z,72.73
2022-08-25T17:12:17.660Z,73.18
2022-08-25T17:14:44.237Z,72.50
2022-08-25T17:17:11.264Z,73.01
2022-08-25T17:19:38.030Z,72.68
2022-08-25T17:22:07.096Z,73.00
2022-08-25T17:24:34.334Z,72.48
2022-08-25T17:27:02.066Z,72.44
2022-08-25T17:29:29.021Z,72.50
2022-08-25T17:31:55.605Z,72.81
2022-08-25T17:34:23.159Z,72.83
2022-08-25T17:36:50.608Z,72.73
2022-08-25T17:39:18.463Z,72.70
2022-08-25T17:41:45.384Z,72.87
2022-08-25T17:44:13.089Z,72.80
2022-08-25T17:46:46.980Z,72.52
2022-08-25T17:49:14.976Z,72.81
2022-08-25T17:51:42.395Z,72.55
2022-08-25T17:54:09.097Z,72.95
2022-08-25T17:56:35.834Z,73.03
2022-08-25T17:59:02.464Z,73.02
2022-08-25T18:01:32.218Z,73.09
2022-08-25T18:04:00.123Z,72.91
2022-08-25T18:06:31.554Z,73.06
2022-08-25T18:08:59.958Z,73.22
2022-08-25T18:11:27.604Z,72.94
2022-08-25T18:13:55.297Z,72.99
2022-08-25T18:16:23.221Z,73.17
2022-08-25T18:18:50.199Z,73.00
2022-08-25T18:21:20.457Z,72.85
2022-08-25T18:23:47.822Z,73.28
2022-08-25T18:26:15.533Z,73.26
2022-08-25T18:28:43.941Z,73.52
2022-08-25T18:31:12.255Z,73.30
2022-08-25T18:33:42.138Z,73.18
2022-08-25T18:36:09.730Z,73.37
2022-08-25T18:38:58.134Z,73.47
2022-08-25T18:41:25.646Z,73.44
2022-08-25T18:43:53.062Z,73.45
2022-08-25T18:46:19.841Z,73.31
2022-08-25T18:48:52.644Z,73.43
2022-08-25T18:51:22.985Z,73.46
2022-08-25T18:53:51.178Z,73.66
2022-08-25T18:56:18.775Z,73.66
2022-08-25T18:58:46.770Z,73.73
2022-08-25T19:01:15.497Z,73.63
2022-08-25T19:03:43.117Z,73.44
2022-08-25T19:06:10.049Z,74.06
2022-08-25T19:08:39.497Z,73.96
2022-08-25T19:11:09.790Z,73.96
2022-08-25T19:13:36.925Z,74.03
2022-08-25T19:16:13.805Z,74.18
2022-08-25T19:18:44.517Z,74.01
2022-08-25T19:21:11.658Z,73.96
2022-08-25T19:23:39.046Z,74.33
2022-08-25T19:26:08.118Z,74.28
2022-08-25T19:28:41.046Z,74.31
2022-08-25T19:31:12.710Z,74.54
2022-08-25T19:33:44.982Z,73.99
2022-08-25T19:36:12.553Z,74.27
2022-08-25T19:38:39.426Z,74.14
2022-08-25T19:41:10.582Z,74.19
2022-08-25T19:43:55.371Z,73.93
2022-08-25T19:46:23.285Z,74.13
2022-08-25T19:48:50.461Z,74.29
2022-08-25T19:51:19.163Z,74.03
2022-08-25T19:53:54.035Z,74.57
2022-08-25T19:56:21.053Z,74.18
2022-08-25T19:58:47.877Z,74.69
2022-08-25T20:01:18.068Z,74.67
2022-08-25T20:03:45.116Z,75.13
2022-08-25T20:06:11.925Z,75.36
2022-08-25T20:08:42.889Z,74.68
2022-08-25T20:11:09.583Z,74.71
2022-08-25T20:13:36.213Z,74.63
2022-08-25T20:16:03.833Z,74.63
2022-08-25T20:18:32.644Z,74.73
2022-08-25T20:21:00.473Z,74.73
2022-08-25T20:23:46.023Z,74.40
2022-08-25T20:26:12.694Z,74.34
2022-08-25T20:28:42.113Z,74.45
2022-08-25T20:31:09.175Z,74.27
2022-08-25T20:33:36.105Z,74.27
2022-08-25T20:36:04.810Z,74.27
2022-08-25T20:38:32.083Z,74.56
2022-08-25T20:41:00.733Z,74.49
2022-08-25T20:43:29.587Z,74.50
2022-08-25T20:46:00.730Z,74.47
2022-08-25T20:48:27.948Z,74.81
2022-08-25T20:50:58.001Z,74.84
2022-08-25T20:53:25.683Z,74.82
2022-08-25T20:55:52.350Z,74.27
2022-08-25T20:58:18.974Z,74.87
2022-08-25T21:00:46.026Z,74.86
2022-08-25T21:03:12.705Z,74.58
2022-08-25T21:05:40.929Z,74.54
2022-08-25T21:08:08.356Z,74.75
2022-08-25T21:10:35.187Z,74.57
2022-08-25T21:13:01.816Z,74.62
2022-08-25T21:15:28.604Z,74.35
2022-08-25T21:17:55.867Z,74.27
2022-08-25T21:20:26.421Z,74.32
2022-08-25T21:22:53.430Z,74.20
2022-08-25T21:25:20.606Z,74.32
2022-08-25T21:27:48.097Z,74.16
2022-08-25T21:30:16.030Z,74.16
2022-08-25T21:32:53.201Z,74.86
2022-08-25T21:35:22.422Z,75.23
2022-08-25T21:37:53.075Z,75.26
2022-08-25T21:40:22.034Z,74.90
2022-08-25T21:42:49.038Z,75.49
2022-08-25T21:45:15.796Z,75.01
2022-08-25T21:47:42.724Z,74.72
2022-08-25T21:50:12.996Z,74.76
2022-08-25T21:52:39.594Z,74.72
2022-08-25T21:55:15.767Z,74.40
2022-08-25T21:57:43.197Z,74.75
2022-08-25T22:00:14.497Z,74.28
2022-08-25T22:02:43.929Z,74.43
2022-08-25T22:05:11.614Z,74.34
2022-08-25T22:07:42.089Z,74.35
2022-08-25T22:10:15.907Z,74.51
2022-08-25T22:12:47.457Z,74.37
2022-08-25T22:15:15.636Z,74.34
2022-08-25T22:17:42.350Z,74.26
2022-08-25T22:20:09.822Z,74.53
2022-08-25T22:22:36.440Z,74.46
2022-08-25T22:25:03.676Z,74.09
2022-08-25T22:27:31.697Z,74.36
2022-08-25T22:29:58.709Z,74.59
2022-08-25T22:32:25.592Z,74.89
2022-08-25T22:34:52.707Z,74.78
2022-08-25T22:37:19.539Z,74.58
2022-08-25T22:39:46.646Z,74.70
2022-08-25T22:42:13.987Z,74.67
2022-08-25T22:44:42.423Z,75.13
2022-08-25T22:47:09.618Z,74.89
2022-08-25T22:49:39.346Z,74.77
2022-08-25T22:52:07.155Z,74.60
2022-08-25T22:54:36.814Z,74.41
2022-08-25T22:57:06.655Z,74.51
2022-08-25T22:59:34.003Z,74.90
2022-08-25T23:02:00.740Z,75.11
2022-08-25T23:04:27.447Z,75.16
2022-08-25T23:06:54.216Z,74.75
2022-08-25T23:09:21.494Z,74.73
2022-08-25T23:11:48.933Z,74.27
2022-08-25T23:14:18.506Z,74.65
2022-08-25T23:16:45.293Z,74.81
2022-08-25T23:19:13.716Z,74.08
2022-08-25T23:22:00.620Z,74.82
2022-08-25T23:24:30.326Z,74.84
2022-08-25T23:26:59.130Z,75.03
2022-08-25T23:29:25.872Z,74.84
2022-08-25T23:31:53.728Z,75.00
2022-08-25T23:34:23.016Z,74.75
2022-08-25T23:36:49.699Z,75.27
2022-08-25T23:39:16.536Z,75.30
2022-08-25T23:41:43.358Z,75.28
2022-08-25T23:44:11.785Z,74.83
2022-08-25T23:46:44.674Z,75.24
2022-08-25T23:49:11.587Z,74.94
2022-08-25T23:51:38.573Z,75.08
2022-08-25T23:54:09.642Z,74.82
2022-08-25T23:56:42.269Z,74.74
2022-08-25T23:59:13.073Z,74.76
